logo
Search for airport 
image banner adimage banner adimage banner ad
image banner ad

CA457 - Lac Ste-Anne (Ctk3)

Located in , Canada

ICAO - , IATA -

Data provided by Airmate  

General information

Coordinates: N50°4'7" W67°57'10"
Elevation is 877 feet MSL.
 
View others Airports in Quebec

Operational data

Special qualification required
Current time UTC:
Current local time:
Weather at : - ( 0 km )
METAR: PACX 231027Z AUTO 17003KT 9SM -SN FEW012 BKN016 OVC025 M09/M10 A2962 RMK AO2 P0000 FZRANO
View NOTAMs / SUP AIP / TFR affecting this airport [VIEW]
Communications frequencies: [VIEW]

Runways:

Airport contact information

Address: Canada

Satellite view of CA457